sensor_id;sensor_type;location;lat;lon;timestamp;pressure;altitude;pressure_sealevel;temperature;humidity
58471;BME280;44258;51.288;12.068;2023-03-22T00:01:18;100200.66;;;10.85;66.49
58471;BME280;44258;51.288;12.068;2023-03-22T00:03:47;100208.56;;;10.88;66.23
58471;BME280;44258;51.288;12.068;2023-03-22T00:06:15;100203.09;;;10.89;66.09
58471;BME280;44258;51.288;12.068;2023-03-22T00:08:51;100201.63;;;10.84;66.17
58471;BME280;44258;51.288;12.068;2023-03-22T00:11:19;100191.72;;;10.84;65.95
58471;BME280;44258;51.288;12.068;2023-03-22T00:13:46;100192.78;;;10.82;65.90
58471;BME280;44258;51.288;12.068;2023-03-22T00:16:13;100193.13;;;10.75;65.96
58471;BME280;44258;51.288;12.068;2023-03-22T00:18:42;100188.78;;;10.73;65.75
58471;BME280;44258;51.288;12.068;2023-03-22T00:21:10;100189.16;;;10.67;65.72
58471;BME280;44258;51.288;12.068;2023-03-22T00:23:37;100185.16;;;10.58;65.53
58471;BME280;44258;51.288;12.068;2023-03-22T00:26:06;100175.06;;;10.47;65.63
58471;BME280;44258;51.288;12.068;2023-03-22T00:28:33;100172.63;;;10.43;65.80
58471;BME280;44258;51.288;12.068;2023-03-22T00:31:03;100170.88;;;10.42;65.92
58471;BME280;44258;51.288;12.068;2023-03-22T00:33:31;100173.66;;;10.40;65.81
58471;BME280;44258;51.288;12.068;2023-03-22T00:36:00;100171.59;;;10.29;65.94
58471;BME280;44258;51.288;12.068;2023-03-22T00:38:27;100178.88;;;10.27;66.06
58471;BME280;44258;51.288;12.068;2023-03-22T00:41:06;100178.19;;;10.24;66.29
58471;BME280;44258;51.288;12.068;2023-03-22T00:43:34;100173.59;;;10.26;66.17
58471;BME280;44258;51.288;12.068;2023-03-22T00:46:09;100168.69;;;10.18;66.39
58471;BME280;44258;51.288;12.068;2023-03-22T00:48:36;100165.03;;;10.19;66.05
58471;BME280;44258;51.288;12.068;2023-03-22T00:51:03;100165.66;;;10.08;66.24
58471;BME280;44258;51.288;12.068;2023-03-22T00:53:30;100156.44;;;9.97;66.57
58471;BME280;44258;51.288;12.068;2023-03-22T00:55:59;100156.53;;;9.95;66.87
58471;BME280;44258;51.288;12.068;2023-03-22T00:58:27;100156.59;;;9.93;67.22
58471;BME280;44258;51.288;12.068;2023-03-22T01:00:54;100167.19;;;9.97;67.19
58471;BME280;44258;51.288;12.068;2023-03-22T01:03:21;100160.78;;;9.99;67.39
58471;BME280;44258;51.288;12.068;2023-03-22T01:05:50;100154.63;;;9.97;67.50
58471;BME280;44258;51.288;12.068;2023-03-22T01:08:21;100162.44;;;10.02;67.01
58471;BME280;44258;51.288;12.068;2023-03-22T01:10:49;100146.66;;;9.95;67.08
58471;BME280;44258;51.288;12.068;2023-03-22T01:13:19;100153.34;;;9.88;67.34
58471;BME280;44258;51.288;12.068;2023-03-22T01:15:51;100146.22;;;9.87;67.50
58471;BME280;44258;51.288;12.068;2023-03-22T01:18:18;100150.31;;;9.94;67.60
58471;BME280;44258;51.288;12.068;2023-03-22T01:20:45;100144.66;;;9.99;67.39
58471;BME280;44258;51.288;12.068;2023-03-22T01:23:13;100134.03;;;9.98;67.46
58471;BME280;44258;51.288;12.068;2023-03-22T01:25:40;100140.75;;;10.05;67.26
58471;BME280;44258;51.288;12.068;2023-03-22T01:28:07;100133.13;;;10.13;67.13
58471;BME280;44258;51.288;12.068;2023-03-22T01:30:34;100136.69;;;10.13;67.07
58471;BME280;44258;51.288;12.068;2023-03-22T01:33:02;100138.44;;;10.14;67.01
58471;BME280;44258;51.288;12.068;2023-03-22T01:35:30;100138.59;;;10.11;66.57
58471;BME280;44258;51.288;12.068;2023-03-22T01:37:57;100136.09;;;10.08;66.63
58471;BME280;44258;51.288;12.068;2023-03-22T01:40:28;100141.03;;;10.00;66.46
58471;BME280;44258;51.288;12.068;2023-03-22T01:42:54;100140.59;;;9.92;66.24
58471;BME280;44258;51.288;12.068;2023-03-22T01:45:40;100129.78;;;9.78;66.59
58471;BME280;44258;51.288;12.068;2023-03-22T01:48:13;100125.09;;;9.65;66.54
58471;BME280;44258;51.288;12.068;2023-03-22T01:50:44;100127.06;;;9.62;66.65
58471;BME280;44258;51.288;12.068;2023-03-22T01:53:13;100127.78;;;9.65;66.63
58471;BME280;44258;51.288;12.068;2023-03-22T01:55:44;100122.31;;;9.67;66.36
58471;BME280;44258;51.288;12.068;2023-03-22T01:58:14;100119.38;;;9.71;66.41
58471;BME280;44258;51.288;12.068;2023-03-22T02:00:43;100113.81;;;9.74;65.86
58471;BME280;44258;51.288;12.068;2023-03-22T02:03:12;100110.44;;;9.71;66.15
58471;BME280;44258;51.288;12.068;2023-03-22T02:05:40;100106.63;;;9.75;65.63
58471;BME280;44258;51.288;12.068;2023-03-22T02:08:07;100105.75;;;9.74;65.29
58471;BME280;44258;51.288;12.068;2023-03-22T02:10:37;100105.84;;;9.73;65.21
58471;BME280;44258;51.288;12.068;2023-03-22T02:13:28;100102.56;;;9.68;65.44
58471;BME280;44258;51.288;12.068;2023-03-22T02:16:12;100092.59;;;9.70;65.12
58471;BME280;44258;51.288;12.068;2023-03-22T02:18:55;100093.81;;;9.64;65.15
58471;BME280;44258;51.288;12.068;2023-03-22T02:22:03;100085.84;;;9.63;64.91
58471;BME280;44258;51.288;12.068;2023-03-22T02:24:54;100090.28;;;9.64;64.71
58471;BME280;44258;51.288;12.068;2023-03-22T02:30:54;100094.88;;;9.62;64.48
58471;BME280;44258;51.288;12.068;2023-03-22T02:37:05;100092.88;;;9.49;64.45
58471;BME280;44258;51.288;12.068;2023-03-22T02:39:43;100094.84;;;9.46;64.35
58471;BME280;44258;51.288;12.068;2023-03-22T02:42:26;100094.63;;;9.33;64.37
58471;BME280;44258;51.288;12.068;2023-03-22T02:45:03;100097.78;;;9.24;64.20
58471;BME280;44258;51.288;12.068;2023-03-22T02:47:39;100098.47;;;9.11;64.62
58471;BME280;44258;51.288;12.068;2023-03-22T02:50:11;100096.91;;;9.07;64.81
58471;BME280;44258;51.288;12.068;2023-03-22T02:52:42;100101.56;;;9.04;64.92
58471;BME280;44258;51.288;12.068;2023-03-22T02:55:16;100093.44;;;9.05;65.08
58471;BME280;44258;51.288;12.068;2023-03-22T02:57:48;100099.56;;;9.07;65.01
58471;BME280;44258;51.288;12.068;2023-03-22T03:00:17;100102.13;;;9.10;65.32
58471;BME280;44258;51.288;12.068;2023-03-22T03:02:48;100096.63;;;9.12;65.17
58471;BME280;44258;51.288;12.068;2023-03-22T03:05:18;100092.25;;;9.11;64.88
58471;BME280;44258;51.288;12.068;2023-03-22T03:07:49;100094.53;;;9.01;65.26
58471;BME280;44258;51.288;12.068;2023-03-22T03:10:22;100093.63;;;9.02;65.07
58471;BME280;44258;51.288;12.068;2023-03-22T03:12:49;100090.50;;;9.10;64.86
58471;BME280;44258;51.288;12.068;2023-03-22T03:15:19;100091.53;;;9.07;65.08
58471;BME280;44258;51.288;12.068;2023-03-22T03:17:56;100090.50;;;9.10;64.93
58471;BME280;44258;51.288;12.068;2023-03-22T03:20:30;100091.53;;;9.07;64.72
58471;BME280;44258;51.288;12.068;2023-03-22T03:23:09;100094.47;;;9.03;65.06
58471;BME280;44258;51.288;12.068;2023-03-22T03:25:46;100106.91;;;9.04;64.83
58471;BME280;44258;51.288;12.068;2023-03-22T03:28:24;100099.31;;;8.96;64.86
58471;BME280;44258;51.288;12.068;2023-03-22T03:30:58;100104.66;;;8.96;64.72
58471;BME280;44258;51.288;12.068;2023-03-22T03:33:26;100093.44;;;9.05;64.91
58471;BME280;44258;51.288;12.068;2023-03-22T03:35:59;100101.03;;;8.97;65.24
58471;BME280;44258;51.288;12.068;2023-03-22T03:38:29;100104.09;;;9.07;64.99
58471;BME280;44258;51.288;12.068;2023-03-22T03:41:01;100099.50;;;9.09;65.02
58471;BME280;44258;51.288;12.068;2023-03-22T03:43:29;100095.53;;;9.16;64.70
58471;BME280;44258;51.288;12.068;2023-03-22T03:45:56;100100.66;;;9.21;64.52
58471;BME280;44258;51.288;12.068;2023-03-22T03:48:26;100097.09;;;9.20;64.39
58471;BME280;44258;51.288;12.068;2023-03-22T03:50:55;100101.59;;;9.20;64.42
58471;BME280;44258;51.288;12.068;2023-03-22T03:53:23;100095.53;;;9.16;64.41
58471;BME280;44258;51.288;12.068;2023-03-22T03:55:50;100104.53;;;9.15;64.26
58471;BME280;44258;51.288;12.068;2023-03-22T03:58:18;100105.66;;;9.11;64.59
58471;BME280;44258;51.288;12.068;2023-03-22T04:00:45;100101.94;;;9.13;64.44
58471;BME280;44258;51.288;12.068;2023-03-22T04:03:12;100107.22;;;9.15;64.33
58471;BME280;44258;51.288;12.068;2023-03-22T04:05:39;100103.41;;;9.19;64.19
58471;BME280;44258;51.288;12.068;2023-03-22T04:08:07;100096.22;;;9.20;64.07
58471;BME280;44258;51.288;12.068;2023-03-22T04:10:34;100091.06;;;9.17;64.24
58471;BME280;44258;51.288;12.068;2023-03-22T04:13:00;100093.56;;;9.20;64.38
58471;BME280;44258;51.288;12.068;2023-03-22T04:15:29;100081.69;;;9.24;64.22
58471;BME280;44258;51.288;12.068;2023-03-22T04:17:55;100089.41;;;9.30;63.95
58471;BME280;44258;51.288;12.068;2023-03-22T04:20:22;100091.16;;;9.31;64.05
58471;BME280;44258;51.288;12.068;2023-03-22T04:22:50;100082.34;;;9.29;63.81
58471;BME280;44258;51.288;12.068;2023-03-22T04:25:18;100086.03;;;9.26;63.87
58471;BME280;44258;51.288;12.068;2023-03-22T04:27:50;100080.84;;;9.23;63.61
58471;BME280;44258;51.288;12.068;2023-03-22T04:30:20;100074.06;;;9.16;63.89
58471;BME280;44258;51.288;12.068;2023-03-22T04:32:50;100066.97;;;9.15;64.12
58471;BME280;44258;51.288;12.068;2023-03-22T04:35:17;100064.03;;;9.20;64.06
58471;BME280;44258;51.288;12.068;2023-03-22T04:37:44;100057.75;;;9.21;63.87
58471;BME280;44258;51.288;12.068;2023-03-22T04:40:13;100059.63;;;9.19;63.75
58471;BME280;44258;51.288;12.068;2023-03-22T04:42:51;100061.78;;;9.12;64.17
58471;BME280;44258;51.288;12.068;2023-03-22T04:45:21;100068.44;;;9.05;64.13
58471;BME280;44258;51.288;12.068;2023-03-22T04:47:51;100065.03;;;9.01;64.29
58471;BME280;44258;51.288;12.068;2023-03-22T04:50:18;100065.91;;;9.02;64.13
58471;BME280;44258;51.288;12.068;2023-03-22T04:52:45;100058.91;;;8.99;64.15
58471;BME280;44258;51.288;12.068;2023-03-22T04:55:15;100062.53;;;8.98;63.86
58471;BME280;44258;51.288;12.068;2023-03-22T04:57:42;100060.97;;;8.94;63.85
58471;BME280;44258;51.288;12.068;2023-03-22T05:00:09;100057.50;;;8.92;63.92
58471;BME280;44258;51.288;12.068;2023-03-22T05:02:36;100063.19;;;8.86;64.16
58471;BME280;44258;51.288;12.068;2023-03-22T05:05:06;100060.59;;;8.84;64.37
58471;BME280;44258;51.288;12.068;2023-03-22T05:07:33;100045.28;;;8.86;64.11
58471;BME280;44258;51.288;12.068;2023-03-22T05:10:00;100051.69;;;8.84;63.84
58471;BME280;44258;51.288;12.068;2023-03-22T05:12:27;100039.56;;;8.77;63.94
58471;BME280;44258;51.288;12.068;2023-03-22T05:14:54;100039.09;;;8.68;64.28
58471;BME280;44258;51.288;12.068;2023-03-22T05:17:21;100032.16;;;8.64;64.51
58471;BME280;44258;51.288;12.068;2023-03-22T05:19:52;100034.38;;;8.56;64.66
58471;BME280;44258;51.288;12.068;2023-03-22T05:22:20;100030.91;;;8.54;64.85
58471;BME280;44258;51.288;12.068;2023-03-22T05:24:46;100035.41;;;8.53;64.77
58471;BME280;44258;51.288;12.068;2023-03-22T05:27:13;100031.63;;;8.58;64.75
58471;BME280;44258;51.288;12.068;2023-03-22T05:29:40;100036.28;;;8.54;64.88
58471;BME280;44258;51.288;12.068;2023-03-22T05:32:11;100033.91;;;8.48;64.99
58471;BME280;44258;51.288;12.068;2023-03-22T05:34:37;100039.09;;;8.51;65.11
58471;BME280;44258;51.288;12.068;2023-03-22T05:37:10;100042.75;;;8.50;65.19
58471;BME280;44258;51.288;12.068;2023-03-22T05:39:38;100035.56;;;8.50;65.29
58471;BME280;44258;51.288;12.068;2023-03-22T05:42:05;100031.63;;;8.58;64.91
58471;BME280;44258;51.288;12.068;2023-03-22T05:44:32;100028.94;;;8.58;65.08
58471;BME280;44258;51.288;12.068;2023-03-22T05:47:01;100016.56;;;8.55;65.02
58471;BME280;44258;51.288;12.068;2023-03-22T05:49:29;100015.44;;;8.59;64.71
58471;BME280;44258;51.288;12.068;2023-03-22T05:51:56;100019.09;;;8.58;64.64
58471;BME280;44258;51.288;12.068;2023-03-22T05:54:26;100025.03;;;8.47;65.13
58471;BME280;44258;51.288;12.068;2023-03-22T05:56:55;100034.69;;;8.50;65.16
58471;BME280;44258;51.288;12.068;2023-03-22T05:59:21;100045.09;;;8.56;65.13
58471;BME280;44258;51.288;12.068;2023-03-22T06:01:48;100043.34;;;8.55;65.24
58471;BME280;44258;51.288;12.068;2023-03-22T06:04:15;100047.13;;;8.51;65.52
58471;BME280;44258;51.288;12.068;2023-03-22T06:06:43;100047.31;;;8.48;65.74
58471;BME280;44258;51.288;12.068;2023-03-22T06:09:09;100051.81;;;8.47;65.68
58471;BME280;44258;51.288;12.068;2023-03-22T06:11:38;100044.00;;;8.43;66.22
58471;BME280;44258;51.288;12.068;2023-03-22T06:14:06;100047.72;;;8.40;66.43
58471;BME280;44258;51.288;12.068;2023-03-22T06:16:33;100051.88;;;8.46;66.60
58471;BME280;44258;51.288;12.068;2023-03-22T06:19:00;100052.19;;;8.57;66.29
58471;BME280;44258;51.288;12.068;2023-03-22T06:21:26;100040.84;;;8.69;66.38
58471;BME280;44258;51.288;12.068;2023-03-22T06:23:53;100051.84;;;8.81;66.17
58471;BME280;44258;51.288;12.068;2023-03-22T06:26:20;100047.25;;;8.83;66.15
58471;BME280;44258;51.288;12.068;2023-03-22T06:28:49;100049.94;;;8.83;66.03
58471;BME280;44258;51.288;12.068;2023-03-22T06:31:17;100048.03;;;8.85;66.24
58471;BME280;44258;51.288;12.068;2023-03-22T06:33:46;100057.41;;;8.93;66.28
58471;BME280;44258;51.288;12.068;2023-03-22T06:36:13;100054.91;;;8.90;66.46
58471;BME280;44258;51.288;12.068;2023-03-22T06:38:40;100051.38;;;8.90;66.95
58471;BME280;44258;51.288;12.068;2023-03-22T06:41:07;100053.72;;;8.96;67.07
58471;BME280;44258;51.288;12.068;2023-03-22T06:43:37;100052.94;;;8.94;67.06
58471;BME280;44258;51.288;12.068;2023-03-22T06:46:04;100058.41;;;9.08;66.85
58471;BME280;44258;51.288;12.068;2023-03-22T06:48:32;100057.19;;;9.14;66.95
58471;BME280;44258;51.288;12.068;2023-03-22T06:51:00;100061.72;;;9.29;66.67
58471;BME280;44258;51.288;12.068;2023-03-22T06:53:28;100068.34;;;9.40;66.59
58471;BME280;44258;51.288;12.068;2023-03-22T06:55:55;100063.94;;;9.54;66.40
58471;BME280;44258;51.288;12.068;2023-03-22T06:58:22;100051.47;;;9.69;66.07
58471;BME280;44258;51.288;12.068;2023-03-22T07:00:49;100057.28;;;9.78;65.79
58471;BME280;44258;51.288;12.068;2023-03-22T07:03:16;100053.69;;;9.77;65.82
58471;BME280;44258;51.288;12.068;2023-03-22T07:05:44;100058.56;;;9.86;65.71
58471;BME280;44258;51.288;12.068;2023-03-22T07:08:11;100054.09;;;10.01;65.42
58471;BME280;44258;51.288;12.068;2023-03-22T07:10:38;100053.94;;;10.04;65.43
58471;BME280;44258;51.288;12.068;2023-03-22T07:13:05;100064.34;;;10.10;65.77
58471;BME280;44258;51.288;12.068;2023-03-22T07:15:32;100057.81;;;10.14;65.81
58471;BME280;44258;51.288;12.068;2023-03-22T07:17:59;100056.69;;;10.19;65.67
58471;BME280;44258;51.288;12.068;2023-03-22T07:20:33;100063.53;;;10.24;65.75
58471;BME280;44258;51.288;12.068;2023-03-22T07:23:04;100057.53;;;10.19;66.18
58471;BME280;44258;51.288;12.068;2023-03-22T07:25:30;100062.19;;;10.31;65.96
58471;BME280;44258;51.288;12.068;2023-03-22T07:27:59;100061.25;;;10.32;66.04
58471;BME280;44258;51.288;12.068;2023-03-22T07:30:26;100064.13;;;10.44;65.95
58471;BME280;44258;51.288;12.068;2023-03-22T07:32:53;100061.28;;;10.47;65.75
58471;BME280;44258;51.288;12.068;2023-03-22T07:35:21;100054.84;;;10.49;66.12
58471;BME280;44258;51.288;12.068;2023-03-22T07:37:47;100060.34;;;10.77;65.59
58471;BME280;44258;51.288;12.068;2023-03-22T07:40:18;100058.78;;;10.88;65.09
58471;BME280;44258;51.288;12.068;2023-03-22T07:42:47;100055.53;;;11.26;64.91
58471;BME280;44258;51.288;12.068;2023-03-22T07:45:13;100050.72;;;11.73;64.52
58471;BME280;44258;51.288;12.068;2023-03-22T07:47:41;100038.78;;;12.04;63.40
58471;BME280;44258;51.288;12.068;2023-03-22T07:50:10;100046.00;;;12.31;63.12
58471;BME280;44258;51.288;12.068;2023-03-22T07:52:37;100049.13;;;12.38;61.98
58471;BME280;44258;51.288;12.068;2023-03-22T07:55:05;100046.00;;;12.44;61.68
58471;BME280;44258;51.288;12.068;2023-03-22T07:57:35;100044.53;;;12.65;61.45
58471;BME280;44258;51.288;12.068;2023-03-22T08:00:04;100041.84;;;12.78;60.66
58471;BME280;44258;51.288;12.068;2023-03-22T08:02:31;100044.97;;;12.72;60.35
58471;BME280;44258;51.288;12.068;2023-03-22T08:04:58;100034.63;;;12.79;60.12
58471;BME280;44258;51.288;12.068;2023-03-22T08:07:25;100036.00;;;12.84;59.92
58471;BME280;44258;51.288;12.068;2023-03-22T08:09:54;100037.84;;;12.97;59.31
58471;BME280;44258;51.288;12.068;2023-03-22T08:12:24;100040.66;;;13.08;59.07
58471;BME280;44258;51.288;12.068;2023-03-22T08:14:53;100045.81;;;13.11;58.57
58471;BME280;44258;51.288;12.068;2023-03-22T08:17:20;100040.91;;;13.54;58.46
58471;BME280;44258;51.288;12.068;2023-03-22T08:19:47;100040.50;;;13.85;57.97
58471;BME280;44258;51.288;12.068;2023-03-22T08:22:14;100046.50;;;14.12;56.58
58471;BME280;44258;51.288;12.068;2023-03-22T08:24:41;100042.75;;;13.91;55.55
58471;BME280;44258;51.288;12.068;2023-03-22T08:27:07;100045.38;;;13.80;55.55
58471;BME280;44258;51.288;12.068;2023-03-22T08:29:35;100048.00;;;14.17;56.09
58471;BME280;44258;51.288;12.068;2023-03-22T08:32:06;100036.97;;;14.44;55.79
58471;BME280;44258;51.288;12.068;2023-03-22T08:34:35;100029.94;;;14.41;55.00
58471;BME280;44258;51.288;12.068;2023-03-22T08:37:03;100043.34;;;14.43;54.74
58471;BME280;44258;51.288;12.068;2023-03-22T08:39:30;100037.34;;;14.50;54.47
58471;BME280;44258;51.288;12.068;2023-03-22T08:42:01;100030.59;;;14.56;54.41
58471;BME280;44258;51.288;12.068;2023-03-22T08:44:30;100033.81;;;14.61;53.54
58471;BME280;44258;51.288;12.068;2023-03-22T08:46:57;100029.91;;;14.88;53.92
58471;BME280;44258;51.288;12.068;2023-03-22T08:49:25;100021.31;;;14.83;53.23
58471;BME280;44258;51.288;12.068;2023-03-22T08:51:52;100014.91;;;14.95;53.71
58471;BME280;44258;51.288;12.068;2023-03-22T08:54:19;100018.84;;;14.91;52.12
58471;BME280;44258;51.288;12.068;2023-03-22T08:56:46;100009.88;;;14.90;52.82
58471;BME280;44258;51.288;12.068;2023-03-22T08:59:13;100007.03;;;15.03;53.10
58471;BME280;44258;51.288;12.068;2023-03-22T09:01:39;99997.31;;;15.23;52.71
58471;BME280;44258;51.288;12.068;2023-03-22T09:04:06;99996.91;;;15.17;52.84
58471;BME280;44258;51.288;12.068;2023-03-22T09:06:38;99987.81;;;15.18;52.07
58471;BME280;44258;51.288;12.068;2023-03-22T09:09:08;99997.19;;;15.13;52.43
58471;BME280;44258;51.288;12.068;2023-03-22T09:11:35;99987.34;;;15.24;52.43
58471;BME280;44258;51.288;12.068;2023-03-22T09:14:06;99993.25;;;15.29;52.31
58471;BME280;44258;51.288;12.068;2023-03-22T09:16:35;99980.66;;;15.17;51.55
58471;BME280;44258;51.288;12.068;2023-03-22T09:19:02;99978.47;;;15.22;51.17
58471;BME280;44258;51.288;12.068;2023-03-22T09:21:29;99972.81;;;15.25;51.75
58471;BME280;44258;51.288;12.068;2023-03-22T09:23:57;99969.59;;;15.53;51.34
58471;BME280;44258;51.288;12.068;2023-03-22T09:26:23;99972.31;;;15.42;51.16
58471;BME280;44258;51.288;12.068;2023-03-22T09:28:51;99982.91;;;15.34;50.98
58471;BME280;44258;51.288;12.068;2023-03-22T09:31:18;99974.03;;;15.32;50.87
58471;BME280;44258;51.288;12.068;2023-03-22T09:33:45;99973.44;;;15.40;50.58
58471;BME280;44258;51.288;12.068;2023-03-22T09:36:12;99981.91;;;15.46;50.99
58471;BME280;44258;51.288;12.068;2023-03-22T09:38:38;99969.09;;;15.26;50.58
58471;BME280;44258;51.288;12.068;2023-03-22T09:41:11;99958.25;;;15.48;51.38
58471;BME280;44258;51.288;12.068;2023-03-22T09:43:46;99947.75;;;15.55;49.98
58471;BME280;44258;51.288;12.068;2023-03-22T09:46:16;99957.97;;;15.63;50.50
58471;BME280;44258;51.288;12.068;2023-03-22T09:48:46;99955.59;;;15.69;49.62
58471;BME280;44258;51.288;12.068;2023-03-22T09:51:32;99954.56;;;15.49;49.73
58471;BME280;44258;51.288;12.068;2023-03-22T09:54:09;99950.63;;;15.53;50.15
58471;BME280;44258;51.288;12.068;2023-03-22T09:56:44;99955.75;;;15.68;49.87
58471;BME280;44258;51.288;12.068;2023-03-22T09:59:16;99953.91;;;15.57;49.90
58471;BME280;44258;51.288;12.068;2023-03-22T10:01:53;99941.06;;;15.70;49.41
58471;BME280;44258;51.288;12.068;2023-03-22T10:04:37;99943.88;;;15.80;49.21
58471;BME280;44258;51.288;12.068;2023-03-22T10:07:13;99942.03;;;16.02;48.91
58471;BME280;44258;51.288;12.068;2023-03-22T10:09:48;99932.63;;;16.06;48.96
58471;BME280;44258;51.288;12.068;2023-03-22T10:12:25;99926.97;;;16.09;48.60
58471;BME280;44258;51.288;12.068;2023-03-22T10:15:00;99931.25;;;15.90;49.05
58471;BME280;44258;51.288;12.068;2023-03-22T10:17:29;99921.00;;;15.94;48.88
58471;BME280;44258;51.288;12.068;2023-03-22T10:19:59;99921.66;;;15.86;48.93
58471;BME280;44258;51.288;12.068;2023-03-22T10:22:32;99914.88;;;15.92;49.27
58471;BME280;44258;51.288;12.068;2023-03-22T10:25:03;99909.66;;;16.00;49.74
58471;BME280;44258;51.288;12.068;2023-03-22T10:27:33;99918.88;;;15.77;48.19
58471;BME280;44258;51.288;12.068;2023-03-22T10:30:07;99905.75;;;15.61;48.03
58471;BME280;44258;51.288;12.068;2023-03-22T10:32:40;99905.63;;;15.83;48.59
58471;BME280;44258;51.288;12.068;2023-03-22T10:35:12;99900.91;;;15.97;48.55
58471;BME280;44258;51.288;12.068;2023-03-22T10:37:39;99892.88;;;16.16;48.01
58471;BME280;44258;51.288;12.068;2023-03-22T10:40:16;99895.75;;;16.36;48.20
58471;BME280;44258;51.288;12.068;2023-03-22T10:42:51;99893.03;;;16.36;47.95
58471;BME280;44258;51.288;12.068;2023-03-22T10:45:20;99893.47;;;16.41;47.49
58471;BME280;44258;51.288;12.068;2023-03-22T10:47:53;99885.75;;;16.36;46.28
58471;BME280;44258;51.288;12.068;2023-03-22T10:50:26;99879.72;;;16.11;46.25
58471;BME280;44258;51.288;12.068;2023-03-22T10:52:58;99872.91;;;16.17;46.28
58471;BME280;44258;51.288;12.068;2023-03-22T10:55:27;99871.06;;;15.97;46.43
58471;BME280;44258;51.288;12.068;2023-03-22T10:58:03;99871.72;;;15.68;45.96
58471;BME280;44258;51.288;12.068;2023-03-22T11:00:36;99877.25;;;15.66;44.57
58471;BME280;44258;51.288;12.068;2023-03-22T11:03:05;99882.31;;;15.92;45.04
58471;BME280;44258;51.288;12.068;2023-03-22T11:05:32;99878.19;;;15.98;44.98
58471;BME280;44258;51.288;12.068;2023-03-22T11:08:01;99877.63;;;15.94;45.29
58471;BME280;44258;51.288;12.068;2023-03-22T11:10:29;99861.28;;;15.84;45.53
58471;BME280;44258;51.288;12.068;2023-03-22T11:13:16;99873.69;;;16.08;44.51
58471;BME280;44258;51.288;12.068;2023-03-22T11:15:53;99867.84;;;16.03;44.44
58471;BME280;44258;51.288;12.068;2023-03-22T11:18:21;99871.34;;;16.14;44.47
58471;BME280;44258;51.288;12.068;2023-03-22T11:20:55;99875.03;;;16.13;45.51
58471;BME280;44258;51.288;12.068;2023-03-22T11:23:24;99860.28;;;16.06;44.77
58471;BME280;44258;51.288;12.068;2023-03-22T11:25:54;99869.50;;;15.94;44.65
58471;BME280;44258;51.288;12.068;2023-03-22T11:28:27;99860.09;;;15.98;44.89
58471;BME280;44258;51.288;12.068;2023-03-22T11:31:00;99862.34;;;15.93;44.39
58471;BME280;44258;51.288;12.068;2023-03-22T11:33:34;99853.53;;;16.01;43.67
58471;BME280;44258;51.288;12.068;2023-03-22T11:36:03;99846.28;;;15.80;43.58
58471;BME280;44258;51.288;12.068;2023-03-22T11:38:35;99847.72;;;16.05;43.76
58471;BME280;44258;51.288;12.068;2023-03-22T11:41:05;99847.09;;;16.23;44.55
58471;BME280;44258;51.288;12.068;2023-03-22T11:43:36;99831.69;;;16.23;43.69
58471;BME280;44258;51.288;12.068;2023-03-22T11:46:06;99844.25;;;16.24;43.69
58471;BME280;44258;51.288;12.068;2023-03-22T11:48:34;99835.09;;;16.46;43.67
58471;BME280;44258;51.288;12.068;2023-03-22T11:51:07;99833.47;;;16.34;42.17
58471;BME280;44258;51.288;12.068;2023-03-22T11:53:38;99826.22;;;16.44;42.93
58471;BME280;44258;51.288;12.068;2023-03-22T11:56:09;99820.94;;;16.43;42.09
58471;BME280;44258;51.288;12.068;2023-03-22T11:58:52;99818.56;;;16.49;41.98
58471;BME280;44258;51.288;12.068;2023-03-22T12:01:31;99813.50;;;16.45;41.33
58471;BME280;44258;51.288;12.068;2023-03-22T12:04:02;99810.81;;;16.45;41.49
58471;BME280;44258;51.288;12.068;2023-03-22T12:06:32;99805.13;;;16.48;41.78
58471;BME280;44258;51.288;12.068;2023-03-22T12:09:04;99803.69;;;16.44;41.45
58471;BME280;44258;51.288;12.068;2023-03-22T12:11:40;99798.19;;;16.34;42.91
58471;BME280;44258;51.288;12.068;2023-03-22T12:14:16;99801.13;;;16.52;41.42
58471;BME280;44258;51.288;12.068;2023-03-22T12:16:49;99801.38;;;16.80;42.05
58471;BME280;44258;51.288;12.068;2023-03-22T12:19:23;99797.28;;;16.54;41.53
58471;BME280;44258;51.288;12.068;2023-03-22T12:21:54;99804.47;;;16.34;41.72
58471;BME280;44258;51.288;12.068;2023-03-22T12:24:26;99797.88;;;16.27;41.37
58471;BME280;44258;51.288;12.068;2023-03-22T12:26:59;99790.66;;;16.38;42.53
58471;BME280;44258;51.288;12.068;2023-03-22T12:29:29;99798.06;;;16.36;41.98
58471;BME280;44258;51.288;12.068;2023-03-22T12:31:59;99801.94;;;16.43;42.38
58471;BME280;44258;51.288;12.068;2023-03-22T12:34:38;99799.53;;;16.19;42.92
58471;BME280;44258;51.288;12.068;2023-03-22T12:37:11;99799.38;;;16.10;42.59
58471;BME280;44258;51.288;12.068;2023-03-22T12:39:45;99792.50;;;16.16;42.54
58471;BME280;44258;51.288;12.068;2023-03-22T12:42:20;99784.06;;;16.09;43.34
58471;BME280;44258;51.288;12.068;2023-03-22T12:44:50;99790.53;;;16.18;42.57
58471;BME280;44258;51.288;12.068;2023-03-22T12:47:26;99785.22;;;16.38;43.59
58471;BME280;44258;51.288;12.068;2023-03-22T12:49:56;99786.13;;;16.17;42.28
58471;BME280;44258;51.288;12.068;2023-03-22T12:52:30;99781.63;;;16.06;42.95
58471;BME280;44258;51.288;12.068;2023-03-22T12:54:59;99782.44;;;16.28;42.43
58471;BME280;44258;51.288;12.068;2023-03-22T12:57:29;99775.69;;;16.43;43.32
58471;BME280;44258;51.288;12.068;2023-03-22T13:00:03;99774.13;;;16.50;42.45
58471;BME280;44258;51.288;12.068;2023-03-22T13:02:35;99768.13;;;16.57;42.41
58471;BME280;44258;51.288;12.068;2023-03-22T13:05:03;99771.44;;;16.60;43.09
58471;BME280;44258;51.288;12.068;2023-03-22T13:07:53;99774.28;;;16.59;42.90
58471;BME280;44258;51.288;12.068;2023-03-22T13:10:58;99774.72;;;16.54;42.24